Airfield :
LOGIN :

Register | Disclaimer

   EN    FR    IT 

 










Legend :    VFR   Marginal VFR   IFR   Intensive IFR   Very Intensive IFR
Visi :
Ceiling :
>= 8 km
>= 3000ft
5 to 8 km
1000 to 3000 ft
1500m to 5 km
500 to 1000 ft
800 to 1500m
200 to 500 ft
< 800m
< 200 ft
Symbols :   Thunderstorms  Fog  Heavy snow  Heavy precipitations  Wind > 20 kt
SIGMETs :     Misc.  Thunderstorms  Icing  Turbulence  Mountain Waves  Volcanic Ashes







- Airport Elevation : 308 ft
- IATA code : POZ


EPPO - Poznan-Lawica

CURRENT METAR :
  • 171100Z 33003KT 300V010 CAVOK 10/04 Q1025 R10/29//95

EXPIRED METARs :
  • 171030Z 33003KT 290V010 9999 BKN018 10/03 Q1025 R10/29//95
  • 171000Z 28003KT 9999 BKN019 08/02 Q1025 R10/29//95
  • 170930Z 29003KT 9999 BKN020 08/01 Q1025 R10/29//95
  • 170900Z 27003KT 9999 BKN020 06/M00 Q1025 R10/29//95
  • 170830Z 25003KT 9999 BKN020 05/00 Q1025 R10/29//95

TAF TAF EPPO
Valid from the 17 at 06:00 until the 18 at 06:00 UTC


170530Z 1706/1806 24006KT CAVOK
BECMG 1721/1723 4000 BR BKN007
TEMPO 1723/1806 1200 BR OVC002
No reported NOTAMs for that airfield.



MET'MAP, your aeronautical weather chart ! - Copyright ORBIFLY December 2007 - Disclaimer

ORBIFLY MET'MAP TEAM :

Programming & Development : Alexandra Zaïnal
Concept & Development : Baudouin d'Aumeries
Co-Development & Prog : Marc-Olivier Méhu
Technical & hardware support : Manuel Goepfert

Contact : metmap@orbifly.com




SOURCES & CREDITS :

   NOAA